map of DNZ home
Great Circle Mapper logo
DNZ - Airport
Location
City:  Denizli, Turkey
Name:Cardak
ICAO / IATA:LTAY / DNZ

Details
Type:Airport (Aerodrome, Airfield)
Use:Public/Civil, Military
Latitude:3747'08"N (37.785567)
Longitude:2942'05"E (29.701297)
Datum:WGS 1984
Elevation:2795 ft (852 m)
Runways:1
Longest:9842 × 148 ft (3000 × 45 m), paved

Time
Time Zone:UTC+2 (DST+3)
Local Time:

Weather
METAR:LTAY 300936Z 05004KT 360V080 9999 -SHRA FEW008 SCT030 BKN100 13/09 Q1016 RMK RWY06 09006KT

Related Locations
Nearby:
Farthest:NTAV: 11460 mi / 18443 km
Raivavae, Tubuai Islands, Austral Islands, PF

Find:

   beyond  
but within

Other Information
Maps:
NOTAMs:
Links:
Sources:

  
flag of Turkey   

Sectional Chart

Flight Planning
at skyvector.com

Satellite Image

Google Maps Satellite View

 

Copyright © 2004-2014 Karl L. Swartz. All rights reserved.
The Great Circle Mapper name and logo are trademarks of the Great Circle Mapper.
All other trademarks mentioned herein belong to their respective owners.
Please see credits for attibutions and further copyright information.

  Follow gcmap on Facebook Follow gcmap on Twitter

hCard Microformat

Geo Microformat